• Join FlightAware (Why Join?)
  • Login
  • US Flag 
01:58AM EDT


 

Airport Tracker/Info


-or-


 

Live Flight TrackerFlight Track Log ✈ N121JM ✈ 21-Sep-2013 ✈ KILG - KTEB

Flight Track Log - Related Links

Times and Time Zones

All times are in EDT time to prevent confusion due to time zone crossing. See the N121JM flight status page for this flight to view local times or setup timezone preferences in your user account.

Time Position Orientation Groundspeed Altitude Reporting Facility
EDT Latitude Longitude Course Direction KTS MPH feet Rate Location/Type
05:49PM 39.6410 -75.6060 182° South 166 191 1,600  Level FlightAware
05:49PM 39.6290 -75.6060 180° South 165 190 2,000 1,620 Climbing FlightAware
05:49PM 39.6110 -75.6080 185° South 167 192 2,600 1,320 Climbing FlightAware
05:49PM 39.6050 -75.6110 201° Southwest 179 206 2,700 900 Climbing FlightAware
05:50PM 39.6000 -75.6170 223° Southwest 181 208 2,900 1,200 Climbing FlightAware
05:50PM 39.5950 -75.6300 243° Southwest 201 231 3,100 780 Climbing FlightAware
05:50PM 39.5950 -75.6370 270° West 211 243 3,100 720 Level FlightAware
05:50PM 39.6010 -75.6600 289° West 237 273 3,400 360 Climbing FlightAware
05:51PM 39.6130 -75.6880 299° West 237 273 3,400 840 Level FlightAware
05:51PM 39.6670 -75.6790 North 237 273 4,200 960 Climbing FlightAware
05:51PM 39.6920 -75.6780 North 292 336 4,200  Level FlightAware
05:52PM 39.7180 -75.6770 North 306 352 4,200  Level FlightAware
05:52PM 39.7490 -75.6760 North 306 352 4,200 -180 Level FlightAware
05:53PM 39.7960 -75.6750 North 309 356 4,100  Descending FlightAware
05:53PM 39.8190 -75.6740 North 307 353 4,200 120 Climbing FlightAware
05:53PM 39.8540 -75.6740 360° North 306 352 4,200  Level FlightAware
05:54PM 39.8830 -75.6730 North 306 352 4,200  Level FlightAware
05:54PM 39.9170 -75.6700 North 307 353 4,200  Level FlightAware
05:54PM 39.9290 -75.6640 21° North 305 351 4,200 -300 Level FlightAware
05:54PM 39.9430 -75.6540 29° Northeast 305 351 4,100 -300 Descending FlightAware
05:55PM 39.9520 -75.6440 40° Northeast 302 348 4,100  Level FlightAware
05:55PM 39.9620 -75.6270 52° Northeast 298 343 4,100 180 Level FlightAware
05:55PM 39.9770 -75.5980 56° Northeast 296 341 4,200 120 Climbing FlightAware
05:55PM 39.9970 -75.5630 53° Northeast 299 344 4,200  Level FlightAware
05:56PM 40.0170 -75.5350 47° Northeast 299 344 4,200  Level FlightAware
05:56PM 40.0280 -75.5210 44° Northeast 299 344 4,200  Level FlightAware
05:56PM 40.0470 -75.4940 47° Northeast 300 345 4,200  Level FlightAware
05:57PM 40.0590 -75.4770 47° Northeast 297 342 4,200  Level FlightAware
05:57PM 40.0810 -75.4440 49° Northeast 297 342 4,200  Level FlightAware
05:57PM 40.0990 -75.4190 47° Northeast 298 343 4,200  Level FlightAware
05:58PM 40.1210 -75.3880 47° Northeast 299 344 4,200  Level FlightAware
05:58PM 40.1430 -75.3590 45° Northeast 299 344 4,200  Level FlightAware
05:58PM 40.1610 -75.3330 48° Northeast 300 345 4,200  Level FlightAware
05:59PM 40.1730 -75.3170 46° Northeast 300 345 4,200  Level FlightAware
05:59PM 40.1950 -75.2860 47° Northeast 298 343 4,200  Level FlightAware
05:59PM 40.2150 -75.2600 45° Northeast 299 344 4,200  Level FlightAware
06:00PM 40.2340 -75.2350 45° Northeast 299 344 4,200  Level FlightAware
06:00PM 40.2510 -75.2120 46° Northeast 298 343 4,200  Level FlightAware
06:00PM 40.2610 -75.1990 45° Northeast 299 344 4,200  Level FlightAware
06:00PM 40.2810 -75.1700 48° Northeast 300 345 4,200  Level FlightAware
06:01PM 40.3040 -75.1380 47° Northeast 299 344 4,200 120 Level FlightAware
06:01PM 40.3210 -75.1160 45° Northeast 297 342 4,300  Climbing FlightAware
06:01PM 40.3430 -75.0870 45° Northeast 299 344 4,200 -180 Descending FlightAware
06:02PM 40.3610 -75.0620 47° Northeast 297 342 4,200  Level FlightAware
06:02PM 40.3780 -75.0370 48° Northeast 297 342 4,200  Level FlightAware
06:03PM 40.4030 -75.0000 48° Northeast 298 343 4,200  Level FlightAware
06:03PM 40.4210 -74.9740 48° Northeast 295 339 4,200  Level FlightAware
06:03PM 40.4400 -74.9470 47° Northeast 295 339 4,200  Level FlightAware
06:04PM 40.4580 -74.9210 48° Northeast 296 341 4,200  Level FlightAware
06:04PM 40.4790 -74.8920 46° Northeast 296 341 4,200  Level FlightAware
06:04PM 40.5010 -74.8610 47° Northeast 295 339 4,200  Level FlightAware
06:05PM 40.5190 -74.8370 45° Northeast 296 341 4,200  Level FlightAware
06:05PM 40.5300 -74.8220 46° Northeast 296 341 4,200  Level FlightAware
06:05PM 40.5540 -74.7880 47° Northeast 296 341 4,200  Level FlightAware
06:06PM 40.5710 -74.7630 48° Northeast 295 339 4,200  Level FlightAware
06:06PM 40.5920 -74.7330 47° Northeast 293 337 4,200 -180 Level FlightAware
06:06PM 40.6060 -74.7140 46° Northeast 296 341 4,100  Descending FlightAware
06:07PM 40.6280 -74.6810 49° Northeast 293 337 4,200 120 Climbing FlightAware
06:07PM 40.6480 -74.6510 49° Northeast 294 338 4,200  Level FlightAware
06:07PM 40.6670 -74.6220 49° Northeast 293 337 4,200  Level FlightAware
06:08PM 40.6780 -74.6070 46° Northeast 293 337 4,200  Level FlightAware
06:08PM 40.6970 -74.5790 48° Northeast 293 337 4,200  Level FlightAware
06:08PM 40.7200 -74.5470 47° Northeast 293 337 4,200  Level FlightAware
06:08PM 40.7320 -74.5310 45° Northeast 293 337 4,200  Level FlightAware
06:09PM 40.7500 -74.5150 34° Northeast 297 342 4,200 -180 Level FlightAware
06:09PM 40.7720 -74.4950 35° Northeast 295 339 4,100 -480 Descending FlightAware
06:09PM 40.7950 -74.4740 35° Northeast 293 337 3,900 -660 Descending FlightAware
06:10PM 40.8150 -74.4550 36° Northeast 294 338 3,700 -780 Descending FlightAware
06:10PM 40.8370 -74.4320 38° Northeast 292 336 3,400 -660 Descending FlightAware
06:10PM 40.8530 -74.4090 47° Northeast 285 328 3,300 -240 Descending FlightAware
06:11PM 40.8600 -74.3930 60° Northeast 278 320 3,300 -180 Level FlightAware
06:11PM 40.8770 -74.3590 57° Northeast 279 321 3,200 -180 Descending FlightAware
06:11PM 40.8860 -74.3410 57° Northeast 279 321 3,200  Level FlightAware
06:12PM 40.9020 -74.3100 56° Northeast 278 320 3,200 -180 Level FlightAware
06:12PM 40.9194 -74.2756 56° Northeast 281 323 3,100 -240 Descending FlightAware ADS-B
06:12PM 40.9245 -74.2648 58° Northeast 282 325 3,100 240 Level FlightAware ADS-B
06:12PM 40.9355 -74.2408 59° Northeast 280 322 3,200  Climbing FlightAware ADS-B
06:13PM 40.9470 -74.2143 60° Northeast 273 314 3,100 -480 Descending FlightAware ADS-B
06:13PM 40.9564 -74.1847 67° East 259 298 2,900 -720 Descending FlightAware ADS-B
06:13PM 40.9581 -74.1782 71° East 256 295 2,800 -840 Descending FlightAware ADS-B
06:14PM 40.9705 -74.1193 74° East 228 262 2,300 -660 Descending FlightAware ADS-B
06:14PM 40.9708 -74.1110 87° East 218 251 2,300 -480 Level FlightAware ADS-B
06:14PM 40.9705 -74.1014 92° East 210 242 2,200 -1,140 Descending FlightAware ADS-B
06:14PM 40.9700 -74.0969 98° East 205 236 2,100 -1,140 Descending FlightAware ADS-B
06:14PM 40.9640 -74.0776 112° Southeast 172 198 1,800 -1,020 Descending FlightAware ADS-B
06:14PM 40.9612 -74.0734 131° Southeast 166 191 1,700 -720 Descending FlightAware ADS-B
06:14PM 40.9592 -74.0709 137° Southeast 163 188 1,700  Level FlightAware ADS-B
06:15PM 40.9545 -74.0658 141° Southeast 158 182 1,700  Level FlightAware ADS-B
06:15PM 40.9455 -74.0583 148° Southeast 153 176 1,700  Level FlightAware ADS-B
06:15PM 40.9341 -74.0541 164° South 151 174 1,700  Level FlightAware ADS-B
06:15PM 40.9292 -74.0536 176° South 150 173 1,700 -600 Level FlightAware ADS-B
06:15PM 40.9264 -74.0536 180° South 150 173 1,600 -1,020 Descending FlightAware ADS-B
06:15PM 40.9216 -74.0541 185° South 149 171 1,500 -900 Descending FlightAware ADS-B
06:16PM 40.9169 -74.0547 186° South 148 170 1,400 -840 Descending FlightAware ADS-B
06:16PM 40.9067 -74.0555 183° South 143 165 1,200 -660 Descending FlightAware ADS-B
06:16PM 40.8982 -74.0560 183° South 144 166 1,100 -720 Descending FlightAware ADS-B
06:16PM 40.8946 -74.0563 184° South 143 165 1,000 -900 Descending FlightAware ADS-B
06:16PM 40.8852 -74.0570 183° South 147 169 800 -900 Descending FlightAware ADS-B
06:17PM 40.8753 -74.0577 183° South 142 163 600 -660 Descending FlightAware ADS-B
06:17PM 40.8474 -74.0598 183° South 140 161 200 -540 Descending FlightAware ADS-B